Time;durP1;ratioP1;P1;durP2;ratioP2;P2;SDS_P1;SDS_P2;PMS_P1;PMS_P2;Temp;Humidity;BMP_temperature;BMP_pressure;BME280_temperature;BME280_humidity;BME280_pressure;Samples;Min_cycle;Max_cycle;Signal;HPM_P1;HPM_P2
2022/01/25 00:31:17;;;;;;;16.38;9.98;;;;;;;-1.48;100.00;100116.16;10391665;28;20119;-77
2022/01/25 00:36:20;;;;;;;17.27;10.32;;;;;;;-1.56;100.00;100118.97;10388416;28;20057;-76
2022/01/25 00:41:22;;;;;;;21.23;10.48;;;;;;;-1.52;100.00;100128.09;10392419;28;20050;-75
2022/01/25 00:46:23;;;;;;;19.95;10.23;;;;;;;-1.57;100.00;100123.41;10372981;28;20057;-76
2022/01/25 00:56:38;;;;;;;15.57;9.60;;;;;;;-1.83;100.00;100125.94;10406056;28;20377;-75
2022/01/25 01:01:39;;;;;;;19.35;10.50;;;;;;;-1.84;100.00;100130.41;10402411;28;20049;-75
2022/01/25 01:06:42;;;;;;;20.30;10.88;;;;;;;-1.98;100.00;100126.09;10407235;28;20104;-78
2022/01/25 01:11:54;;;;;;;20.70;10.85;;;;;;;-2.05;100.00;100120.81;10390849;28;20045;-76
2022/01/25 01:17:16;;;;;;;22.27;11.73;;;;;;;-2.02;100.00;100115.16;10390944;28;20464;-76
2022/01/25 01:38:43;;;;;;;20.40;10.60;;;;;;;-2.36;100.00;100115.19;10386716;28;20203;-73
2022/01/25 01:43:39;;;;;;;20.92;11.27;;;;;;;-2.26;100.00;100115.66;10382663;28;20074;-73
2022/01/25 01:48:51;;;;;;;18.48;10.32;;;;;;;-2.27;100.00;100105.34;10386077;28;20077;-73
2022/01/25 01:53:53;;;;;;;16.30;9.75;;;;;;;-2.39;100.00;100105.84;10395365;28;20074;-74
2022/01/25 01:58:56;;;;;;;19.95;10.82;;;;;;;-2.45;100.00;100101.38;10396726;28;20049;-74
2022/01/25 02:04:00;;;;;;;19.23;11.18;;;;;;;-2.34;100.00;100106.09;10384622;28;20057;-74
2022/01/25 02:09:01;;;;;;;17.75;9.82;;;;;;;-2.43;100.00;100088.84;10378953;28;20058;-74
2022/01/25 02:14:08;;;;;;;19.88;11.05;;;;;;;-2.53;100.00;100095.47;10389292;28;20419;-75
2022/01/25 02:24:31;;;;;;;20.10;10.68;;;;;;;-2.66;100.00;100083.84;10387509;28;20041;-73
2022/01/25 02:29:32;;;;;;;22.65;11.13;;;;;;;-2.47;100.00;100069.22;10355664;28;20057;-75
2022/01/25 02:34:34;;;;;;;17.80;9.80;;;;;;;-2.68;100.00;100069.28;10380638;28;20468;-75
2022/01/25 02:39:38;;;;;;;15.68;9.63;;;;;;;-2.73;100.00;100069.88;10372005;28;20361;-76
2022/01/25 02:44:38;;;;;;;22.52;12.48;;;;;;;-2.68;100.00;100077.16;10398356;28;20057;-77
2022/01/25 02:49:39;;;;;;;19.88;10.40;;;;;;;-2.78;100.00;100066.19;10397100;28;20587;-77
2022/01/25 02:54:41;;;;;;;21.58;11.43;;;;;;;-2.67;100.00;100069.09;10378285;28;20164;-75
2022/01/25 02:59:42;;;;;;;21.27;11.63;;;;;;;-2.73;100.00;100063.81;10403147;28;20613;-76
2022/01/25 03:04:43;;;;;;;20.50;10.77;;;;;;;-2.99;100.00;100065.25;10386718;28;20164;-76
2022/01/25 03:09:46;;;;;;;20.13;10.63;;;;;;;-3.02;100.00;100057.72;10392226;28;20037;-76
2022/01/25 03:15:10;;;;;;;20.60;10.30;;;;;;;-3.08;100.00;100057.69;10438964;28;20088;-75
2022/01/25 03:20:18;;;;;;;21.25;11.27;;;;;;;-2.81;100.00;100046.38;10413090;28;20073;-78
2022/01/25 03:25:24;;;;;;;18.85;10.55;;;;;;;-2.91;100.00;100046.72;10413370;28;20042;-76
2022/01/25 03:30:26;;;;;;;19.40;11.55;;;;;;;-3.05;100.00;100041.53;10392933;28;20045;-76
2022/01/25 03:35:32;;;;;;;17.75;11.05;;;;;;;-3.02;100.00;100051.66;10394671;28;20390;-77
2022/01/25 03:40:33;;;;;;;22.50;11.32;;;;;;;-2.97;100.00;100050.09;10398532;28;20068;-77
2022/01/25 03:45:37;;;;;;;20.30;11.15;;;;;;;-2.83;100.00;100051.03;10419739;28;20052;-77
2022/01/25 03:50:45;;;;;;;20.73;11.00;;;;;;;-3.00;100.00;100045.25;10432451;28;20117;-76
2022/01/25 03:55:47;;;;;;;20.98;11.90;;;;;;;-3.13;100.00;100039.06;10417382;28;20184;-77
2022/01/25 04:00:49;;;;;;;19.50;11.17;;;;;;;-3.21;100.00;100040.00;10375693;28;20045;-76
2022/01/25 04:05:51;;;;;;;21.65;10.93;;;;;;;-3.26;100.00;100039.78;10402645;28;20048;-76
2022/01/25 04:10:52;;;;;;;24.43;12.87;;;;;;;-3.07;100.00;100031.25;10408322;28;20049;-76
2022/01/25 04:15:57;;;;;;;23.88;12.27;;;;;;;-3.20;100.00;100026.72;10409695;28;20658;-77
2022/01/25 04:21:06;;;;;;;22.15;11.13;;;;;;;-3.32;100.00;100015.09;10396672;28;20060;-78
2022/01/25 04:26:06;;;;;;;24.02;11.27;;;;;;;-3.49;100.00;100013.72;10394277;28;20045;-75
2022/01/25 04:31:07;;;;;;;23.08;12.02;;;;;;;-3.52;100.00;100020.16;10384749;28;20050;-78
2022/01/25 04:52:17;;;;;;;25.58;11.93;;;;;;;-3.47;100.00;100038.81;10417692;28;20140;-76
2022/01/25 04:57:39;;;;;;;22.00;12.10;;;;;;;-3.45;100.00;100021.06;10428145;28;20045;-77
2022/01/25 05:02:50;;;;;;;22.52;12.02;;;;;;;-3.42;100.00;100030.34;10458842;28;20050;-76
2022/01/25 05:08:00;;;;;;;19.60;11.70;;;;;;;-3.52;100.00;100035.09;10457175;28;20068;-77
2022/01/25 05:13:21;;;;;;;22.02;11.70;;;;;;;-3.43;100.00;100023.47;10439322;28;20053;-78
2022/01/25 05:18:35;;;;;;;19.67;10.45;;;;;;;-3.68;100.00;100024.84;10393181;28;20518;-77
2022/01/25 05:23:36;;;;;;;20.67;11.50;;;;;;;-3.62;100.00;100021.50;10404917;28;20041;-77
2022/01/25 05:28:36;;;;;;;22.70;11.30;;;;;;;-3.81;100.00;100022.94;10400544;28;20530;-76
2022/01/25 05:33:37;;;;;;;21.05;10.27;;;;;;;-3.86;100.00;100020.84;10393740;28;20400;-78
2022/01/25 05:38:37;;;;;;;22.50;10.75;;;;;;;-3.86;100.00;100014.78;10379075;28;20144;-79
2022/01/25 05:44:13;;;;;;;20.58;10.10;;;;;;;-3.90;100.00;100026.66;10389518;28;20045;-76
2022/01/25 05:49:11;;;;;;;21.80;11.48;;;;;;;-3.89;100.00;100026.47;10385618;28;20123;-75
2022/01/25 05:54:13;;;;;;;22.23;10.48;;;;;;;-3.65;100.00;100035.81;10390857;28;20799;-76
2022/01/25 05:59:13;;;;;;;19.58;11.35;;;;;;;-3.57;100.00;100043.53;10386373;28;20077;-76
2022/01/25 06:04:14;;;;;;;22.38;12.20;;;;;;;-3.51;100.00;100052.47;10390585;28;20080;-76
2022/01/25 06:09:14;;;;;;;24.05;12.80;;;;;;;-3.41;100.00;100050.34;10376373;28;20077;-76
2022/01/25 06:14:15;;;;;;;23.08;12.45;;;;;;;-3.32;100.00;100041.34;10356152;28;20061;-77
2022/01/25 06:19:17;;;;;;;21.30;12.40;;;;;;;-3.14;100.00;100048.75;10396430;28;20069;-75
2022/01/25 06:24:18;;;;;;;26.35;13.45;;;;;;;-2.95;100.00;100036.78;10395055;28;20133;-75
2022/01/25 06:29:19;;;;;;;28.52;14.52;;;;;;;-2.81;100.00;100038.50;10371903;28;20072;-76
2022/01/25 06:34:21;;;;;;;30.67;16.02;;;;;;;-2.80;100.00;100036.69;10406564;28;20044;-79
2022/01/25 06:39:21;;;;;;;28.70;15.13;;;;;;;-2.70;100.00;100035.31;10407778;28;20084;-76
2022/01/25 06:44:23;;;;;;;24.75;14.25;;;;;;;-2.71;100.00;100041.59;10377788;28;20079;-79
2022/01/25 06:49:24;;;;;;;27.23;15.30;;;;;;;-2.70;100.00;100037.13;10409162;28;20052;-79
2022/01/25 06:54:25;;;;;;;37.58;18.48;;;;;;;-2.52;100.00;100034.00;10402128;28;20060;-78
2022/01/25 06:59:28;;;;;;;35.58;18.98;;;;;;;-2.52;100.00;100039.25;10399192;28;20192;-78
2022/01/25 07:04:30;;;;;;;39.20;17.52;;;;;;;-2.48;100.00;100043.13;10324997;28;20479;-77
2022/01/25 07:09:31;;;;;;;45.10;19.67;;;;;;;-2.38;100.00;100048.81;10379675;28;20361;-78
2022/01/25 07:14:35;;;;;;;45.50;18.88;;;;;;;-2.37;100.00;100058.34;10380817;28;20053;-78
2022/01/25 07:19:35;;;;;;;58.90;20.30;;;;;;;-2.33;100.00;100064.84;10377983;28;20057;-77
2022/01/25 07:24:36;;;;;;;60.00;20.50;;;;;;;-2.25;100.00;100063.88;10429422;23;20053;-79
2022/01/25 07:29:38;;;;;;;81.25;23.70;;;;;;;-2.32;100.00;100063.81;10404115;28;20124;-79
2022/01/25 07:34:39;;;;;;;77.70;23.17;;;;;;;-2.28;100.00;100061.63;10379140;28;20045;-79
2022/01/25 07:39:44;;;;;;;74.00;22.52;;;;;;;-2.27;100.00;100064.06;10372694;28;20045;-78
2022/01/25 07:44:45;;;;;;;67.55;22.58;;;;;;;-2.25;100.00;100059.41;10401363;28;20346;-79
2022/01/25 07:49:45;;;;;;;84.45;24.05;;;;;;;-2.25;100.00;100048.09;10431715;28;20044;-81
2022/01/25 07:54:48;;;;;;;73.07;23.17;;;;;;;-2.29;100.00;100052.91;10426286;28;20037;-81
2022/01/25 07:59:49;;;;;;;80.22;25.38;;;;;;;-2.22;100.00;100063.47;10414097;28;20463;-78
2022/01/25 08:04:50;;;;;;;74.40;24.40;;;;;;;-2.05;100.00;100059.50;10402173;28;20042;-79
2022/01/25 08:09:51;;;;;;;66.63;23.40;;;;;;;-1.95;100.00;100075.72;10326861;28;20069;-77
2022/01/25 08:14:53;;;;;;;61.08;21.25;;;;;;;-2.15;100.00;100077.47;10380165;28;20145;-78
2022/01/25 08:20:23;;;;;;;72.47;20.67;;;;;;;-2.21;100.00;100076.41;10401083;28;20041;-78
2022/01/25 08:25:23;;;;;;;58.70;19.23;;;;;;;-2.01;100.00;100079.97;10368112;28;20069;-78
2022/01/25 08:30:24;;;;;;;74.38;20.98;;;;;;;-2.21;100.00;100072.97;10314573;28;20950;-77
2022/01/25 08:35:24;;;;;;;70.28;21.95;;;;;;;-2.10;100.00;100070.63;10339567;28;20058;-78
2022/01/25 08:40:26;;;;;;;59.70;18.58;;;;;;;-1.96;100.00;100068.03;10355179;28;20053;-79
2022/01/25 08:45:28;;;;;;;60.33;19.17;;;;;;;-1.87;100.00;100058.94;10344610;28;20118;-79
2022/01/25 08:50:28;;;;;;;48.58;16.95;;;;;;;-1.98;100.00;100068.22;10330283;28;20045;-79
2022/01/25 08:55:30;;;;;;;76.25;19.13;;;;;;;-1.94;100.00;100072.06;10365225;28;20592;-78
2022/01/25 09:00:32;;;;;;;53.45;17.77;;;;;;;-1.95;100.00;100080.16;10353596;28;20057;-79
2022/01/25 09:05:34;;;;;;;74.00;20.85;;;;;;;-1.97;100.00;100077.75;10349295;28;20093;-78
2022/01/25 09:10:37;;;;;;;59.42;18.83;;;;;;;-1.85;100.00;100072.72;10367798;28;20068;-78
2022/01/25 09:15:38;;;;;;;53.30;18.02;;;;;;;-1.67;100.00;100064.25;10377999;28;20049;-82
2022/01/25 09:20:39;;;;;;;63.20;20.40;;;;;;;-1.73;100.00;100064.06;10412018;28;20030;-80
2022/01/25 09:25:40;;;;;;;64.80;20.80;;;;;;;-1.63;100.00;100063.69;10337992;28;20070;-78
2022/01/25 09:30:41;;;;;;;54.15;19.02;;;;;;;-1.54;100.00;100072.19;10374000;28;20065;-78
2022/01/25 09:35:43;;;;;;;47.80;18.50;;;;;;;-1.31;100.00;100080.53;10384846;28;20132;-79
2022/01/25 09:40:44;;;;;;;51.30;18.17;;;;;;;-1.35;100.00;100067.97;10408479;28;20041;-78
2022/01/25 09:45:46;;;;;;;59.95;19.45;;;;;;;-1.53;100.00;100068.56;10360377;28;20052;-80
2022/01/25 09:50:48;;;;;;;54.55;19.38;;;;;;;-1.38;100.00;100073.63;10397473;28;20056;-78
2022/01/25 09:55:48;;;;;;;52.38;19.15;;;;;;;-1.59;100.00;100070.16;10367281;28;20066;-76
2022/01/25 10:00:56;;;;;;;51.40;19.20;;;;;;;-1.36;100.00;100076.88;10397277;28;20046;-76
2022/01/25 10:06:01;;;;;;;58.58;21.80;;;;;;;-1.28;100.00;100074.88;10360240;28;20054;-76
2022/01/25 10:11:06;;;;;;;67.13;21.15;;;;;;;-1.19;100.00;100086.84;10392884;28;20066;-74
2022/01/25 10:16:12;;;;;;;50.40;19.40;;;;;;;-1.24;100.00;100083.19;10385565;28;20045;-76
2022/01/25 10:21:17;;;;;;;52.97;18.85;;;;;;;-1.25;100.00;100082.38;10367823;28;20074;-78
2022/01/25 10:26:23;;;;;;;60.38;21.58;;;;;;;-1.15;100.00;100088.03;10356357;28;20081;-77
2022/01/25 10:31:42;;;;;;;57.67;22.30;;;;;;;-1.20;100.00;100082.56;10340752;28;20060;-77
2022/01/25 10:36:47;;;;;;;56.17;19.02;;;;;;;-1.25;100.00;100085.00;10333051;28;20050;-77
2022/01/25 10:41:47;;;;;;;52.67;18.67;;;;;;;-0.92;100.00;100078.91;10327667;28;20046;-78
2022/01/25 10:46:48;;;;;;;54.60;19.73;;;;;;;-0.99;100.00;100083.41;10298359;28;20058;-78
2022/01/25 10:51:49;;;;;;;52.97;19.90;;;;;;;-0.98;100.00;100077.09;10331843;28;20125;-76
2022/01/25 10:56:57;;;;;;;58.28;21.50;;;;;;;-1.12;100.00;100084.19;10361998;28;20136;-78
2022/01/25 11:02:02;;;;;;;66.43;21.75;;;;;;;-0.99;100.00;100068.38;10326436;28;20049;-77
2022/01/25 11:07:11;;;;;;;56.13;21.23;;;;;;;-0.82;100.00;100065.31;10382738;28;20034;-78
2022/01/25 11:12:15;;;;;;;62.25;22.63;;;;;;;-0.98;100.00;100071.84;10387133;28;20037;-83
2022/01/25 11:17:17;;;;;;;66.35;21.75;;;;;;;-0.88;100.00;100067.78;10405888;28;20393;-78
2022/01/25 11:22:21;;;;;;;61.53;22.65;;;;;;;-0.58;100.00;100068.13;10370533;28;20068;-79
2022/01/25 11:27:31;;;;;;;64.22;22.38;;;;;;;-0.61;100.00;100059.81;10337744;28;20048;-77
2022/01/25 11:32:39;;;;;;;63.90;23.02;;;;;;;-0.74;100.00;100057.19;10344273;28;20060;-80
2022/01/25 11:37:44;;;;;;;61.42;22.73;;;;;;;-0.69;100.00;100055.56;10313071;28;20046;-76
2022/01/25 11:42:49;;;;;;;53.47;19.27;;;;;;;-0.71;100.00;100052.34;10393932;28;20058;-78
2022/01/25 11:47:54;;;;;;;57.88;19.67;;;;;;;-0.53;100.00;100053.53;10367081;28;20418;-76
2022/01/25 11:53:05;;;;;;;52.90;20.35;;;;;;;-0.81;100.00;100056.41;10346011;28;20042;-78
2022/01/25 11:58:24;;;;;;;55.97;21.20;;;;;;;-0.77;100.00;100060.25;10357019;28;20136;-78
2022/01/25 12:03:34;;;;;;;56.42;20.00;;;;;;;-1.00;100.00;100050.16;10344026;28;20046;-79
2022/01/25 12:14:09;;;;;;;61.20;22.63;;;;;;;-0.64;100.00;100047.03;10363896;28;20056;-78
2022/01/25 12:19:14;;;;;;;62.25;21.27;;;;;;;-0.79;100.00;100033.28;10362616;28;20125;-79
2022/01/25 12:24:23;;;;;;;68.50;22.33;;;;;;;-0.76;100.00;100038.16;10399667;22;20088;-80
2022/01/25 12:29:37;;;;;;;60.47;21.73;;;;;;;-0.80;100.00;100040.41;10426834;28;20053;-78
2022/01/25 12:35:11;;;;;;;66.03;22.48;;;;;;;-0.66;100.00;100031.44;10438329;28;20065;-78
2022/01/25 12:40:31;;;;;;;70.25;23.17;;;;;;;-0.74;100.00;100023.72;10443382;28;20049;-79
2022/01/25 12:45:43;;;;;;;59.95;20.20;;;;;;;-0.81;100.00;100022.16;10447843;28;20607;-80
2022/01/25 12:50:48;;;;;;;65.20;23.55;;;;;;;-0.64;100.00;100023.31;10423325;28;20113;-78
2022/01/25 12:55:52;;;;;;;73.38;25.35;;;;;;;-0.41;100.00;100017.56;10434200;28;20109;-79
2022/01/25 13:00:59;;;;;;;66.07;23.52;;;;;;;-0.62;100.00;100016.84;10418694;28;20057;-79
2022/01/25 13:06:14;;;;;;;65.78;24.25;;;;;;;-0.64;100.00;100015.41;10444163;28;20095;-80
2022/01/25 13:11:25;;;;;;;66.30;21.17;;;;;;;-0.53;100.00;100017.41;10442021;28;20067;-78
2022/01/25 13:17:03;;;;;;;65.43;23.52;;;;;;;-0.93;100.00;100006.13;10418675;28;20061;-79
2022/01/25 13:22:18;;;;;;;61.42;21.10;;;;;;;-0.75;100.00;100018.66;10458734;28;20029;-79
2022/01/25 13:27:20;;;;;;;61.38;21.15;;;;;;;-0.86;100.00;100002.47;10428177;28;20084;-80
2022/01/25 13:32:31;;;;;;;64.47;22.48;;;;;;;-0.92;100.00;99998.00;10402141;28;20042;-80
2022/01/25 13:37:33;;;;;;;60.10;22.75;;;;;;;-1.02;100.00;100002.09;10358451;28;20088;-79
2022/01/25 13:42:55;;;;;;;63.88;22.10;;;;;;;-0.96;100.00;99991.56;10398634;28;20392;-78
2022/01/25 13:48:05;;;;;;;59.17;20.92;;;;;;;-1.05;100.00;99991.97;10403144;28;20053;-78
2022/01/25 13:53:09;;;;;;;55.03;18.50;;;;;;;-1.04;100.00;99997.03;10391219;28;20053;-79
2022/01/25 13:58:36;;;;;;;62.65;21.50;;;;;;;-0.77;100.00;99995.16;10369965;28;20050;-78
2022/01/25 14:03:56;;;;;;;57.53;19.90;;;;;;;-1.01;100.00;99987.91;10383859;28;20046;-80
2022/01/25 14:09:30;;;;;;;48.73;17.70;;;;;;;-0.96;100.00;99993.38;10431207;28;20439;-79
2022/01/25 14:25:39;;;;;;;59.25;19.90;;;;;;;-0.95;100.00;99987.09;10451973;28;20068;-80
2022/01/25 14:30:45;;;;;;;50.90;18.90;;;;;;;-0.88;100.00;99993.97;10411169;28;20069;-79
2022/01/25 14:35:50;;;;;;;49.05;18.45;;;;;;;-0.84;100.00;99996.19;10362010;28;20150;-78
2022/01/25 14:41:06;;;;;;;54.85;19.13;;;;;;;-0.93;100.00;99999.03;10375722;28;20551;-78
2022/01/25 14:46:13;;;;;;;53.42;18.60;;;;;;;-0.91;100.00;99991.75;10398919;28;20054;-77
2022/01/25 14:51:14;;;;;;;53.40;19.08;;;;;;;-1.01;100.00;99988.72;10385529;28;20061;-78
2022/01/25 14:56:18;;;;;;;56.13;18.90;;;;;;;-0.95;100.00;99992.34;10389427;28;20057;-78
2022/01/25 15:01:21;;;;;;;50.25;17.02;;;;;;;-0.88;100.00;99985.25;10380300;28;20046;-79
2022/01/25 15:06:25;;;;;;;43.50;15.75;;;;;;;-0.88;100.00;99983.44;10398281;28;20088;-78
2022/01/25 15:11:31;;;;;;;47.00;17.30;;;;;;;-0.88;100.00;99980.78;10411984;28;20076;-79
2022/01/25 15:16:34;;;;;;;52.45;17.48;;;;;;;-0.87;100.00;99974.50;10432944;28;20113;-81
2022/01/25 15:27:10;;;;;;;37.95;16.52;;;;;;;-0.38;100.00;99988.94;10525345;28;20040;-81
2022/01/25 15:32:12;;;;;;;48.60;17.85;;;;;;;-0.57;100.00;99990.63;10501832;28;20057;-79
2022/01/25 15:37:16;;;;;;;40.40;16.13;;;;;;;-0.52;100.00;99986.56;10484763;28;20048;-81
2022/01/25 15:42:19;;;;;;;57.25;18.52;;;;;;;-0.49;100.00;99981.69;10527394;28;20036;-79
2022/01/25 15:47:28;;;;;;;44.03;16.07;;;;;;;-0.57;100.00;99985.34;10503042;28;20048;-79
2022/01/25 15:52:32;;;;;;;51.85;19.63;;;;;;;-0.74;100.00;99976.28;10465309;28;20067;-77
2022/01/25 15:57:33;;;;;;;47.30;18.15;;;;;;;-0.90;100.00;99963.56;10477319;28;20049;-79
2022/01/25 16:02:35;;;;;;;46.25;17.33;;;;;;;-0.92;100.00;99973.50;10469901;28;20064;-79
2022/01/25 16:07:36;;;;;;;48.33;17.25;;;;;;;-0.93;100.00;99975.31;10454448;28;20151;-79
2022/01/25 16:12:37;;;;;;;54.88;19.38;;;;;;;-0.95;100.00;99972.09;10458015;28;21042;-79
2022/01/25 16:17:40;;;;;;;49.38;18.25;;;;;;;-0.95;100.00;99976.53;10450764;28;20055;-80
2022/01/25 16:22:41;;;;;;;48.33;17.30;;;;;;;-0.87;100.00;99977.13;10478740;28;20048;-78
2022/01/25 16:27:44;;;;;;;50.00;19.08;;;;;;;-0.91;100.00;99977.78;10424951;28;20107;-80
2022/01/25 16:32:46;;;;;;;47.50;17.55;;;;;;;-0.85;100.00;99979.56;10457247;28;20072;-79
2022/01/25 16:37:48;;;;;;;51.38;18.95;;;;;;;-0.89;100.00;99973.91;10439731;28;20156;-78
2022/01/25 16:42:51;;;;;;;52.63;19.33;;;;;;;-0.87;100.00;99978.97;10473364;28;20037;-79
2022/01/25 16:47:54;;;;;;;52.72;18.80;;;;;;;-0.80;100.00;99973.69;10417561;28;20067;-78
2022/01/25 16:52:58;;;;;;;60.22;22.80;;;;;;;-0.88;100.00;99980.78;10421400;28;20116;-80
2022/01/25 16:57:59;;;;;;;52.30;18.83;;;;;;;-0.93;100.00;99977.94;10424898;28;20098;-80
2022/01/25 17:03:00;;;;;;;54.40;19.02;;;;;;;-0.87;100.00;99994.78;10463336;28;20131;-78
2022/01/25 17:08:03;;;;;;;50.72;19.27;;;;;;;-0.84;100.00;99983.00;10458001;28;20148;-79
2022/01/25 17:13:04;;;;;;;50.63;21.40;;;;;;;-0.84;100.00;99985.63;10464004;28;20057;-77
2022/01/25 17:18:07;;;;;;;60.08;21.48;;;;;;;-0.83;100.00;99990.69;10462157;28;20285;-79
2022/01/25 17:23:12;;;;;;;51.03;19.02;;;;;;;-0.77;100.00;99999.63;10477007;28;20052;-81
2022/01/25 17:28:13;;;;;;;51.33;20.15;;;;;;;-0.63;100.00;100006.50;10488521;28;20056;-82
2022/01/25 17:33:14;;;;;;;51.28;18.85;;;;;;;-0.59;100.00;100011.13;10458864;28;20083;-84
2022/01/25 17:38:15;;;;;;;41.70;17.13;;;;;;;-0.61;100.00;100010.53;10454340;28;20092;-78
2022/01/25 17:43:18;;;;;;;49.70;18.60;;;;;;;-0.57;100.00;100008.28;10442637;28;20055;-78
2022/01/25 17:48:20;;;;;;;39.28;17.38;;;;;;;-0.65;100.00;100014.59;10412671;28;20053;-79
2022/01/25 17:53:21;;;;;;;48.83;18.90;;;;;;;-0.71;100.00;100017.25;10441593;28;20579;-79
2022/01/25 17:58:22;;;;;;;46.15;17.73;;;;;;;-0.58;100.00;100033.03;10464223;28;20061;-78
2022/01/25 18:03:23;;;;;;;52.08;20.15;;;;;;;-0.60;100.00;100027.16;10462749;28;20184;-78
2022/01/25 18:08:23;;;;;;;50.10;19.40;;;;;;;-0.57;100.00;100032.00;10443627;28;26409;-82
2022/01/25 18:13:29;;;;;;;47.97;20.08;;;;;;;-0.66;100.00;100035.88;10460898;28;20060;-81
2022/01/25 18:18:32;;;;;;;49.92;19.60;;;;;;;-0.67;100.00;100036.91;10475685;28;20065;-79
2022/01/25 18:23:44;;;;;;;49.20;19.27;;;;;;;-0.71;100.00;100033.88;10454443;22;20030;-82
2022/01/25 18:28:47;;;;;;;53.22;19.00;;;;;;;-0.57;100.00;100043.38;10367649;28;20053;-80
2022/01/25 18:33:49;;;;;;;50.88;20.40;;;;;;;-0.60;100.00;100038.53;10374949;28;20052;-81
2022/01/25 18:39:05;;;;;;;47.00;18.98;;;;;;;-0.56;100.00;100041.53;10354236;28;20034;-79
2022/01/25 18:44:08;;;;;;;52.08;20.55;;;;;;;-0.58;100.00;100030.41;10351921;28;20476;-79
2022/01/25 18:49:09;;;;;;;53.07;18.93;;;;;;;-0.64;100.00;100042.59;10348631;28;20077;-80
2022/01/25 18:54:11;;;;;;;41.35;17.65;;;;;;;-0.50;100.00;100045.19;10328636;28;20137;-78
2022/01/25 18:59:13;;;;;;;42.08;17.70;;;;;;;-0.52;100.00;100037.50;10366178;28;20090;-79
2022/01/25 19:04:15;;;;;;;44.95;17.27;;;;;;;-0.52;100.00;100026.13;10362277;28;20136;-78
2022/01/25 19:09:17;;;;;;;41.42;17.13;;;;;;;-0.53;100.00;100027.97;10339897;28;20117;-77
2022/01/25 19:14:18;;;;;;;44.40;17.92;;;;;;;-0.38;100.00;100025.06;10359083;28;20108;-80
2022/01/25 19:19:21;;;;;;;40.95;17.02;;;;;;;-0.36;100.00;100026.50;10328048;28;20146;-78
2022/01/25 19:24:23;;;;;;;37.97;16.70;;;;;;;-0.43;100.00;100030.97;10352981;28;20049;-78
2022/01/25 19:29:25;;;;;;;35.13;15.15;;;;;;;-0.45;100.00;100024.28;10359803;28;20071;-77
2022/01/25 19:34:26;;;;;;;34.08;15.15;;;;;;;-0.43;100.00;100022.25;10331284;28;20124;-79
2022/01/25 19:39:29;;;;;;;37.38;16.50;;;;;;;-0.44;100.00;100024.06;10390540;28;20827;-80
2022/01/25 19:44:32;;;;;;;39.72;15.68;;;;;;;-0.55;100.00;100024.69;10371264;28;20050;-79
2022/01/25 19:49:34;;;;;;;41.53;17.45;;;;;;;-0.59;100.00;100015.59;10390951;28;20057;-78
2022/01/25 19:54:39;;;;;;;38.80;14.83;;;;;;;-0.55;100.00;100011.50;10368519;28;20053;-77
2022/01/25 19:59:47;;;;;;;33.63;14.98;;;;;;;-0.47;100.00;100018.38;10334743;28;20046;-81
2022/01/25 20:04:51;;;;;;;32.70;14.30;;;;;;;-0.39;100.00;100011.06;10379028;28;20030;-84
2022/01/25 20:09:55;;;;;;;28.48;12.63;;;;;;;-0.40;100.00;100016.56;10386944;28;20042;-79
2022/01/25 20:14:57;;;;;;;23.48;12.38;;;;;;;-0.40;100.00;100006.00;10394731;28;20046;-79
2022/01/25 20:20:05;;;;;;;26.70;13.43;;;;;;;-0.45;100.00;100006.63;10358233;28;20046;-81
2022/01/25 20:25:23;;;;;;;29.63;14.23;;;;;;;-0.59;100.00;100002.41;10298271;28;20057;-79
2022/01/25 20:30:36;;;;;;;33.35;13.93;;;;;;;-0.60;100.00;99998.97;10361997;28;20081;-79
2022/01/25 20:35:43;;;;;;;37.00;14.88;;;;;;;-0.57;100.00;100010.91;10289395;28;20054;-78
2022/01/25 20:41:07;;;;;;;33.40;14.02;;;;;;;-0.68;100.00;100001.03;10370155;28;20046;-80
2022/01/25 20:46:22;;;;;;;34.53;14.82;;;;;;;-0.65;100.00;100006.69;10399294;28;20065;-80
2022/01/25 20:51:57;;;;;;;42.10;16.02;;;;;;;-0.61;100.00;100002.63;10402935;28;20058;-80
2022/01/25 20:57:05;;;;;;;40.40;15.68;;;;;;;-0.47;100.00;100006.00;10352730;28;20069;-78
2022/01/25 21:02:08;;;;;;;33.08;12.95;;;;;;;-0.59;100.00;100003.22;10386417;28;20045;-78
2022/01/25 21:07:09;;;;;;;34.28;14.32;;;;;;;-0.58;100.00;99998.75;10399924;28;20054;-78
2022/01/25 21:12:10;;;;;;;36.88;16.05;;;;;;;-0.66;100.00;100004.25;10354371;28;20065;-78
2022/01/25 21:17:11;;;;;;;34.90;14.35;;;;;;;-0.62;100.00;100006.28;10356287;28;20053;-81
2022/01/25 21:22:13;;;;;;;34.10;13.27;;;;;;;-0.60;100.00;99996.34;10395853;28;20041;-79
2022/01/25 21:27:16;;;;;;;37.47;14.27;;;;;;;-0.62;100.00;100002.84;10377353;28;20059;-79
2022/01/25 21:32:18;;;;;;;38.03;14.32;;;;;;;-0.65;100.00;99992.69;10331277;28;20106;-80
2022/01/25 21:37:19;;;;;;;32.10;13.43;;;;;;;-0.59;100.00;99989.22;10358097;28;20077;-78
2022/01/25 21:42:23;;;;;;;34.40;13.35;;;;;;;-0.70;100.00;99976.69;10357527;28;20077;-77
2022/01/25 21:47:23;;;;;;;;;;;;;;;-0.68;100.00;99978.09;10357433;28;20072;-81
2022/01/25 21:52:24;;;;;;;29.25;13.05;;;;;;;-0.74;100.00;99983.38;10363571;28;19921;-77
2022/01/25 21:57:26;;;;;;;32.72;13.52;;;;;;;-0.74;100.00;99973.66;10351830;28;20056;-77
2022/01/25 22:02:29;;;;;;;36.70;14.38;;;;;;;-0.70;100.00;99972.22;10344736;28;20065;-77
2022/01/25 22:07:30;;;;;;;33.28;13.57;;;;;;;-0.74;100.00;99971.00;10357389;28;20043;-77
2022/01/25 22:12:42;;;;;;;29.52;13.95;;;;;;;-0.75;100.00;99972.03;10343637;28;20049;-78
2022/01/25 22:17:43;;;;;;;33.53;14.15;;;;;;;-0.76;100.00;99956.44;10357025;28;20042;-77
2022/01/25 22:22:44;;;;;;;31.90;12.90;;;;;;;-0.80;100.00;99960.50;10328599;28;20072;-77
2022/01/25 22:27:49;;;;;;;28.40;12.27;;;;;;;-0.81;100.00;99956.25;10355250;28;20108;-84
2022/01/25 22:32:50;;;;;;;25.92;12.07;;;;;;;-0.78;100.00;99951.38;10302017;28;20128;-77
2022/01/25 22:37:50;;;;;;;23.67;10.23;;;;;;;-0.80;100.00;99952.59;10326531;28;20421;-80
2022/01/25 22:42:53;;;;;;;22.65;11.23;;;;;;;-0.77;100.00;99960.09;10337379;28;20161;-78
2022/01/25 22:48:06;;;;;;;23.70;10.40;;;;;;;-0.79;100.00;99954.22;10343559;28;20058;-78
2022/01/25 22:53:08;;;;;;;27.17;11.82;;;;;;;-0.87;100.00;99953.41;10360368;28;20147;-82
2022/01/25 22:58:08;;;;;;;22.08;10.00;;;;;;;-0.87;100.00;99955.25;10358443;28;20117;-77
2022/01/25 23:03:10;;;;;;;14.07;7.07;;;;;;;-0.84;100.00;99948.75;10358792;28;20193;-78
2022/01/25 23:08:11;;;;;;;19.92;9.38;;;;;;;-0.80;100.00;99934.16;10361587;28;20997;-77
2022/01/25 23:18:41;;;;;;;22.17;10.00;;;;;;;-0.85;100.00;99934.75;10362538;28;20393;-79
2022/01/25 23:23:45;;;;;;;23.48;10.15;;;;;;;-0.74;100.00;99938.56;10359419;28;20073;-78
2022/01/25 23:28:58;;;;;;;17.38;8.57;;;;;;;-0.70;100.00;99945.06;10386800;28;20037;-78
2022/01/25 23:34:11;;;;;;;19.03;10.53;;;;;;;-0.75;100.00;99948.31;10371757;28;20042;-77
2022/01/25 23:39:17;;;;;;;22.05;10.52;;;;;;;-0.66;100.00;99940.97;10354780;28;20050;-79
2022/01/25 23:44:25;;;;;;;24.50;10.93;;;;;;;-0.81;100.00;99935.16;10333724;28;20046;-77
2022/01/25 23:49:34;;;;;;;26.42;12.90;;;;;;;-0.74;100.00;99933.28;10360426;28;20470;-76
